EGKA

Shoreham Airport

Brighton, United Kingdom
METAR EGKA 231620Z 29006KT CAVOK 13/07 Q1029
Observed Flight Rules
Oct-23 @ 16:20 UTC (29 minutes ago) Visual Flight Rules
Wind Visibility Clouds
290° at 6 knots 10,000+ meters
  • Clear skies
Temperatures Readings
Current 13°C / 55°F
Dewpoint 7°C / 45°F
Humidity 67%
Altimeter 30.38" Hg
Pressure 1029 hPa
Elevation 2
METAR EGKA 231620Z 29006KT CAVOK 13/07 Q1029
Observed Flight Rules
Oct-23 @ 16:20 UTC
(29 minutes ago)
VFR
Wind Visibility
290° at 6 knots 10,000+ meters
Clouds
  • Clear skies
Temperature Dewpoint
13°C / 55°F 7°C / 45°F
Humidity Altimeter Pressure
67% 30.38" Hg 1029 hPa